AEE544 LGTS-LCLK
Flight info
| Callsign | AEE544 |
|---|---|
| Flight time | N/A |
| Altitude | 37000 |
| Route | LEKPO UL617 BAMOS DCT MES UL609 RDS UM601 EVENO DCT DASNI DCT BONEK |
| Aircraft | A320/M-SDE3FGHIRWY/LB1 |
Departure
| Time | 2026-04-28 06:18 |
|---|---|
| Airport | Thessaloniki Macedonia International Airport (LGTS) |
Arrival
| Time | N/A |
|---|---|
| Airport | Larnaca International Airport (LCLK) |
| Time | Latitude | Longitude | Altitude | Speed | Heading |
|---|---|---|---|---|---|
| 2026-04-28 05:47 | 40.52256 | 22.97705 | 29 ft | 0 kts | 45° |
| 2026-04-28 05:53 | 40.52244 | 22.97689 | 27 ft | 0 kts | 45° |
| 2026-04-28 06:08 | 40.52236 | 22.97678 | 28 ft | 4 kts | 47° |
| 2026-04-28 06:09 | 40.52219 | 22.97650 | 28 ft | 4 kts | 59° |
| 2026-04-28 06:09 | 40.52209 | 22.97619 | 28 ft | 4 kts | 95° |
| 2026-04-28 06:09 | 40.52215 | 22.97600 | 28 ft | 1 kts | 140° |
| 2026-04-28 06:09 | 40.52217 | 22.97597 | 28 ft | 0 kts | 140° |
| 2026-04-28 06:12 | 40.52213 | 22.97602 | 28 ft | 2 kts | 140° |
| 2026-04-28 06:13 | 40.52197 | 22.97619 | 28 ft | 4 kts | 141° |
| 2026-04-28 06:13 | 40.52168 | 22.97644 | 28 ft | 7 kts | 150° |
| 2026-04-28 06:13 | 40.52120 | 22.97693 | 28 ft | 10 kts | 135° |
| 2026-04-28 06:13 | 40.52066 | 22.97762 | 29 ft | 12 kts | 136° |
| 2026-04-28 06:14 | 40.52004 | 22.97849 | 29 ft | 14 kts | 122° |
| 2026-04-28 06:14 | 40.51976 | 22.97981 | 29 ft | 16 kts | 104° |
| 2026-04-28 06:14 | 40.51948 | 22.98127 | 29 ft | 15 kts | 103° |
| 2026-04-28 06:14 | 40.51925 | 22.98253 | 28 ft | 15 kts | 104° |
| 2026-04-28 06:15 | 40.51898 | 22.98393 | 28 ft | 17 kts | 104° |
| 2026-04-28 06:15 | 40.51870 | 22.98541 | 28 ft | 16 kts | 104° |
| 2026-04-28 06:15 | 40.51847 | 22.98666 | 28 ft | 0 kts | 104° |
| 2026-04-28 06:16 | 40.51847 | 22.98667 | 28 ft | 1 kts | 104° |
| 2026-04-28 06:16 | 40.51839 | 22.98694 | 28 ft | 5 kts | 120° |
| 2026-04-28 06:16 | 40.51801 | 22.98707 | 28 ft | 7 kts | 191° |
| 2026-04-28 06:16 | 40.51749 | 22.98693 | 29 ft | 8 kts | 193° |
| 2026-04-28 06:17 | 40.51690 | 22.98647 | 29 ft | 11 kts | 241° |
| 2026-04-28 06:17 | 40.51693 | 22.98587 | 28 ft | 3 kts | 284° |
| 2026-04-28 06:17 | 40.51745 | 22.98312 | 29 ft | 65 kts | 284° |
| 2026-04-28 06:18 | 40.52143 | 22.96218 | 34 ft | 163 kts | 284° |
| 2026-04-28 06:18 | 40.52429 | 22.94742 | 519 ft | 166 kts | 285° |
| 2026-04-28 06:18 | 40.52746 | 22.93284 | 1161 ft | 166 kts | 286° |
| 2026-04-28 06:18 | 40.53072 | 22.91830 | 1772 ft | 167 kts | 285° |
| 2026-04-28 06:19 | 40.53415 | 22.90290 | 2076 ft | 186 kts | 285° |
| 2026-04-28 06:19 | 40.53794 | 22.88554 | 2289 ft | 210 kts | 285° |
| 2026-04-28 06:19 | 40.54215 | 22.86596 | 2593 ft | 235 kts | 285° |
| 2026-04-28 06:19 | 40.54680 | 22.84427 | 3049 ft | 255 kts | 285° |
| 2026-04-28 06:20 | 40.55163 | 22.82182 | 3843 ft | 261 kts | 286° |
| 2026-04-28 06:20 | 40.55607 | 22.79851 | 4698 ft | 266 kts | 277° |
| 2026-04-28 06:20 | 40.55306 | 22.77446 | 5479 ft | 275 kts | 244° |
| 2026-04-28 06:20 | 40.54008 | 22.75607 | 6285 ft | 282 kts | 210° |
| 2026-04-28 06:21 | 40.52114 | 22.74926 | 7052 ft | 287 kts | 183° |
| 2026-04-28 06:21 | 40.50112 | 22.75022 | 7857 ft | 290 kts | 176° |
| 2026-04-28 06:21 | 40.48088 | 22.74937 | 8648 ft | 293 kts | 188° |
| 2026-04-28 06:21 | 40.46105 | 22.74281 | 9456 ft | 295 kts | 201° |
| 2026-04-28 06:22 | 40.44259 | 22.73083 | 10218 ft | 298 kts | 213° |
| 2026-04-28 06:22 | 40.42604 | 22.71411 | 10742 ft | 308 kts | 224° |
| 2026-04-28 06:22 | 40.41152 | 22.69270 | 10910 ft | 330 kts | 232° |
| 2026-04-28 06:22 | 40.39655 | 22.66848 | 11053 ft | 352 kts | 232° |
| 2026-04-28 06:23 | 40.38088 | 22.64327 | 11524 ft | 360 kts | 232° |
| 2026-04-28 06:23 | 40.36491 | 22.61773 | 12143 ft | 364 kts | 231° |
| 2026-04-28 06:23 | 40.34870 | 22.59200 | 12793 ft | 367 kts | 231° |
| 2026-04-28 06:23 | 40.33234 | 22.56614 | 13452 ft | 371 kts | 231° |
| 2026-04-28 06:24 | 40.31580 | 22.54001 | 14092 ft | 374 kts | 231° |
| 2026-04-28 06:24 | 40.29917 | 22.51369 | 14670 ft | 377 kts | 231° |
| 2026-04-28 06:24 | 40.28224 | 22.48733 | 15215 ft | 380 kts | 227° |
| 2026-04-28 06:24 | 40.26119 | 22.46628 | 15728 ft | 385 kts | 207° |
| 2026-04-28 06:25 | 40.23562 | 22.45560 | 16239 ft | 390 kts | 187° |
| 2026-04-28 06:25 | 40.20880 | 22.45662 | 16742 ft | 394 kts | 168° |
| 2026-04-28 06:25 | 40.18283 | 22.46840 | 17251 ft | 398 kts | 156° |
| 2026-04-28 06:25 | 40.15741 | 22.48318 | 17780 ft | 402 kts | 155° |
| 2026-04-28 06:26 | 40.13184 | 22.49830 | 18317 ft | 405 kts | 154° |
| 2026-04-28 06:26 | 40.10793 | 22.51791 | 18765 ft | 409 kts | 138° |
| 2026-04-28 06:26 | 40.08928 | 22.54590 | 19212 ft | 410 kts | 120° |
| 2026-04-28 06:26 | 40.07799 | 22.57994 | 19690 ft | 410 kts | 102° |
| 2026-04-28 06:27 | 40.07510 | 22.61683 | 20161 ft | 409 kts | 85° |
| 2026-04-28 06:27 | 40.07754 | 22.65336 | 20619 ft | 411 kts | 82° |
| 2026-04-28 06:27 | 40.08028 | 22.69064 | 21079 ft | 414 kts | 82° |
| 2026-04-28 06:27 | 40.08300 | 22.72819 | 21521 ft | 417 kts | 82° |
| 2026-04-28 06:28 | 40.08570 | 22.76600 | 21956 ft | 419 kts | 82° |
| 2026-04-28 06:28 | 40.08838 | 22.80401 | 22377 ft | 422 kts | 82° |
| 2026-04-28 06:28 | 40.09106 | 22.84235 | 22793 ft | 425 kts | 82° |
| 2026-04-28 06:28 | 40.09374 | 22.88091 | 23210 ft | 428 kts | 82° |
| 2026-04-28 06:29 | 40.09643 | 22.91976 | 23618 ft | 431 kts | 82° |
| 2026-04-28 06:29 | 40.09909 | 22.95835 | 23972 ft | 434 kts | 82° |
| 2026-04-28 06:29 | 40.10179 | 22.99771 | 24322 ft | 436 kts | 82° |
| 2026-04-28 06:29 | 40.10435 | 23.03723 | 24673 ft | 438 kts | 85° |
| 2026-04-28 06:30 | 40.10249 | 23.07714 | 25010 ft | 444 kts | 98° |
| 2026-04-28 06:30 | 40.09342 | 23.11589 | 25342 ft | 450 kts | 112° |
| 2026-04-28 06:30 | 40.07741 | 23.15117 | 25670 ft | 455 kts | 127° |
| 2026-04-28 06:30 | 40.05529 | 23.18083 | 26007 ft | 459 kts | 141° |
| 2026-04-28 06:31 | 40.02826 | 23.20310 | 26318 ft | 462 kts | 155° |
| 2026-04-28 06:31 | 39.99873 | 23.21847 | 26640 ft | 465 kts | 159° |
| 2026-04-28 06:31 | 39.96841 | 23.23334 | 26974 ft | 467 kts | 159° |
| 2026-04-28 06:31 | 39.93793 | 23.24820 | 27295 ft | 469 kts | 159° |
| 2026-04-28 06:32 | 39.90725 | 23.26312 | 27623 ft | 472 kts | 159° |
| 2026-04-28 06:32 | 39.87655 | 23.27810 | 28068 ft | 471 kts | 159° |
| 2026-04-28 06:32 | 39.84597 | 23.29312 | 28542 ft | 470 kts | 159° |
| 2026-04-28 06:32 | 39.81540 | 23.30816 | 28998 ft | 469 kts | 159° |
| 2026-04-28 06:33 | 39.78492 | 23.32311 | 29457 ft | 468 kts | 159° |
| 2026-04-28 06:33 | 39.75443 | 23.33803 | 29922 ft | 468 kts | 159° |
| 2026-04-28 06:33 | 39.72399 | 23.35288 | 30361 ft | 467 kts | 159° |
| 2026-04-28 06:33 | 39.69400 | 23.36745 | 30752 ft | 466 kts | 160° |
| 2026-04-28 06:34 | 39.66365 | 23.38222 | 31150 ft | 466 kts | 160° |
| 2026-04-28 06:34 | 39.63333 | 23.39698 | 31549 ft | 465 kts | 160° |
| 2026-04-28 06:34 | 39.60310 | 23.41165 | 31958 ft | 464 kts | 160° |
| 2026-04-28 06:34 | 39.57290 | 23.42629 | 32361 ft | 463 kts | 160° |
| 2026-04-28 06:35 | 39.54277 | 23.44093 | 32773 ft | 462 kts | 160° |
| 2026-04-28 06:35 | 39.51265 | 23.45557 | 33175 ft | 462 kts | 160° |
| 2026-04-28 06:35 | 39.48261 | 23.47016 | 33575 ft | 461 kts | 160° |
| 2026-04-28 06:35 | 39.45259 | 23.48471 | 33980 ft | 460 kts | 160° |
| 2026-04-28 06:36 | 39.42305 | 23.49897 | 34331 ft | 459 kts | 160° |
| 2026-04-28 06:36 | 39.39315 | 23.51343 | 34648 ft | 459 kts | 160° |
| 2026-04-28 06:36 | 39.36326 | 23.52792 | 34948 ft | 458 kts | 160° |
| 2026-04-28 06:36 | 39.33427 | 23.54500 | 35248 ft | 459 kts | 150° |
| 2026-04-28 06:37 | 39.30784 | 23.56803 | 35534 ft | 459 kts | 140° |
| 2026-04-28 06:37 | 39.28478 | 23.59644 | 35805 ft | 459 kts | 130° |
| 2026-04-28 06:37 | 39.26568 | 23.62936 | 36069 ft | 458 kts | 120° |
| 2026-04-28 06:37 | 39.25003 | 23.66511 | 36322 ft | 458 kts | 118° |
| 2026-04-28 06:38 | 39.23484 | 23.70056 | 36579 ft | 458 kts | 118° |
| 2026-04-28 06:38 | 39.21938 | 23.73651 | 36840 ft | 458 kts | 118° |
| 2026-04-28 06:38 | 39.20391 | 23.77246 | 37057 ft | 459 kts | 118° |
| 2026-04-28 06:39 | 39.17269 | 23.84481 | 37163 ft | 467 kts | 118° |
| 2026-04-28 06:39 | 39.14086 | 23.91836 | 37170 ft | 471 kts | 118° |
| 2026-04-28 06:40 | 39.10910 | 23.99164 | 37171 ft | 472 kts | 119° |
| 2026-04-28 06:40 | 39.07698 | 24.06538 | 37172 ft | 472 kts | 119° |
| 2026-04-28 06:41 | 39.04483 | 24.13911 | 37171 ft | 473 kts | 119° |
| 2026-04-28 06:41 | 39.01262 | 24.21286 | 37174 ft | 473 kts | 119° |
| 2026-04-28 06:42 | 38.98029 | 24.28652 | 37174 ft | 473 kts | 119° |
| 2026-04-28 06:42 | 38.94812 | 24.35965 | 37167 ft | 473 kts | 119° |
| 2026-04-28 06:43 | 38.91573 | 24.43335 | 37168 ft | 474 kts | 119° |
| 2026-04-28 06:43 | 38.88330 | 24.50703 | 37165 ft | 474 kts | 120° |
| 2026-04-28 06:44 | 38.85068 | 24.58064 | 37165 ft | 475 kts | 120° |
| 2026-04-28 06:44 | 38.81823 | 24.65375 | 37162 ft | 475 kts | 120° |
| 2026-04-28 06:45 | 38.78558 | 24.72737 | 37152 ft | 475 kts | 120° |
| 2026-04-28 06:45 | 38.75282 | 24.80100 | 37148 ft | 476 kts | 120° |
| 2026-04-28 06:46 | 38.71996 | 24.87452 | 37150 ft | 476 kts | 120° |
| 2026-04-28 06:46 | 38.68708 | 24.94803 | 37149 ft | 476 kts | 120° |
| 2026-04-28 06:47 | 38.65435 | 25.02108 | 37146 ft | 476 kts | 120° |
| 2026-04-28 06:47 | 38.62136 | 25.09456 | 37143 ft | 477 kts | 120° |
| 2026-04-28 06:48 | 38.58831 | 25.16807 | 37142 ft | 477 kts | 121° |
| 2026-04-28 06:48 | 38.55518 | 25.24144 | 37134 ft | 477 kts | 121° |
| 2026-04-28 06:49 | 38.52215 | 25.31426 | 37135 ft | 477 kts | 121° |
| 2026-04-28 06:49 | 38.48887 | 25.38755 | 37129 ft | 477 kts | 121° |
| 2026-04-28 06:50 | 38.45553 | 25.46085 | 37125 ft | 478 kts | 121° |
| 2026-04-28 06:50 | 38.42219 | 25.53412 | 37122 ft | 477 kts | 121° |
| 2026-04-28 06:51 | 38.38904 | 25.60678 | 37117 ft | 477 kts | 121° |
| 2026-04-28 06:51 | 38.35564 | 25.67991 | 37114 ft | 477 kts | 121° |
| 2026-04-28 06:52 | 38.32218 | 25.75286 | 37101 ft | 477 kts | 121° |
| 2026-04-28 06:52 | 38.28866 | 25.82575 | 37090 ft | 477 kts | 121° |
| 2026-04-28 06:53 | 38.25376 | 25.89672 | 37084 ft | 475 kts | 130° |
| 2026-04-28 06:53 | 38.20701 | 25.95537 | 37083 ft | 472 kts | 141° |
| 2026-04-28 06:54 | 38.15747 | 26.01009 | 37081 ft | 472 kts | 141° |
| 2026-04-28 06:54 | 38.10804 | 26.06504 | 37095 ft | 472 kts | 141° |
| 2026-04-28 06:55 | 38.05889 | 26.11949 | 37090 ft | 472 kts | 141° |
| 2026-04-28 06:55 | 38.00936 | 26.17409 | 37095 ft | 472 kts | 141° |
| 2026-04-28 06:56 | 37.95980 | 26.22857 | 37093 ft | 471 kts | 141° |
| 2026-04-28 06:56 | 37.91026 | 26.28291 | 37091 ft | 471 kts | 141° |
| 2026-04-28 06:57 | 37.86075 | 26.33719 | 37084 ft | 471 kts | 141° |
| 2026-04-28 06:57 | 37.81154 | 26.39101 | 37078 ft | 471 kts | 141° |
| 2026-04-28 06:58 | 37.76191 | 26.44502 | 37076 ft | 471 kts | 141° |
| 2026-04-28 06:58 | 37.71228 | 26.49891 | 37066 ft | 471 kts | 141° |
| 2026-04-28 06:59 | 37.66297 | 26.55245 | 37060 ft | 471 kts | 141° |
| 2026-04-28 06:59 | 37.61342 | 26.60639 | 37053 ft | 470 kts | 141° |
| 2026-04-28 07:00 | 37.56383 | 26.66026 | 37053 ft | 470 kts | 141° |
| 2026-04-28 07:00 | 37.52257 | 26.70488 | 37054 ft | 470 kts | 141° |
| 2026-04-28 07:01 | 37.46484 | 26.76723 | 37050 ft | 470 kts | 141° |
| 2026-04-28 07:01 | 37.41517 | 26.82082 | 37052 ft | 470 kts | 141° |
| 2026-04-28 07:02 | 37.36616 | 26.87527 | 37054 ft | 470 kts | 139° |
| 2026-04-28 07:02 | 37.32690 | 26.92256 | 37054 ft | 471 kts | 137° |
| 2026-04-28 07:03 | 37.28011 | 26.98005 | 37054 ft | 470 kts | 137° |
| 2026-04-28 07:03 | 37.22527 | 27.04608 | 37039 ft | 470 kts | 138° |
| 2026-04-28 07:04 | 37.18543 | 27.09320 | 37042 ft | 470 kts | 138° |
| 2026-04-28 07:04 | 37.13819 | 27.14906 | 37035 ft | 470 kts | 138° |
| 2026-04-28 07:05 | 37.09070 | 27.20533 | 37032 ft | 470 kts | 138° |
| 2026-04-28 07:05 | 37.04326 | 27.26153 | 37028 ft | 470 kts | 138° |
| 2026-04-28 07:06 | 36.98811 | 27.32672 | 37029 ft | 469 kts | 138° |
| 2026-04-28 07:06 | 36.94862 | 27.37324 | 37024 ft | 469 kts | 139° |
| 2026-04-28 07:07 | 36.90111 | 27.42911 | 37024 ft | 469 kts | 139° |
| 2026-04-28 07:07 | 36.85361 | 27.48493 | 37022 ft | 469 kts | 139° |
| 2026-04-28 07:08 | 36.80611 | 27.54069 | 37018 ft | 469 kts | 139° |
| 2026-04-28 07:08 | 36.75887 | 27.59593 | 37016 ft | 468 kts | 139° |
| 2026-04-28 07:09 | 36.71130 | 27.65146 | 37014 ft | 468 kts | 139° |
| 2026-04-28 07:09 | 36.66378 | 27.70692 | 37005 ft | 468 kts | 139° |
| 2026-04-28 07:10 | 36.61627 | 27.76228 | 37003 ft | 468 kts | 139° |
| 2026-04-28 07:10 | 36.56864 | 27.81756 | 36995 ft | 468 kts | 139° |
| 2026-04-28 07:11 | 36.52133 | 27.87227 | 36990 ft | 468 kts | 139° |
| 2026-04-28 07:11 | 36.47372 | 27.92746 | 36985 ft | 468 kts | 139° |
| 2026-04-28 07:12 | 36.42614 | 27.98257 | 36982 ft | 468 kts | 139° |
| 2026-04-28 07:12 | 36.37878 | 28.03723 | 36985 ft | 468 kts | 138° |
| 2026-04-28 07:13 | 36.33899 | 28.10112 | 36979 ft | 472 kts | 119° |
| 2026-04-28 07:13 | 36.31556 | 28.17718 | 36979 ft | 473 kts | 108° |
| 2026-04-28 07:14 | 36.29580 | 28.25503 | 36976 ft | 474 kts | 108° |
| 2026-04-28 07:14 | 36.27583 | 28.33289 | 36978 ft | 474 kts | 108° |
| 2026-04-28 07:15 | 36.25597 | 28.41017 | 36981 ft | 474 kts | 108° |
| 2026-04-28 07:15 | 36.23589 | 28.48799 | 36982 ft | 474 kts | 109° |
| 2026-04-28 07:16 | 36.21575 | 28.56585 | 36987 ft | 475 kts | 109° |
| 2026-04-28 07:16 | 36.19550 | 28.64359 | 36989 ft | 475 kts | 109° |
| 2026-04-28 07:17 | 36.17527 | 28.72078 | 36991 ft | 475 kts | 109° |
| 2026-04-28 07:17 | 36.15489 | 28.79852 | 36988 ft | 475 kts | 109° |
| 2026-04-28 07:18 | 36.13449 | 28.87623 | 36991 ft | 475 kts | 109° |
| 2026-04-28 07:18 | 36.11402 | 28.95386 | 36991 ft | 475 kts | 109° |
| 2026-04-28 07:19 | 36.09352 | 29.03149 | 36994 ft | 475 kts | 109° |
| 2026-04-28 07:19 | 36.07312 | 29.10861 | 36995 ft | 475 kts | 109° |
| 2026-04-28 07:20 | 36.05248 | 29.18617 | 36994 ft | 475 kts | 109° |
| 2026-04-28 07:20 | 36.03175 | 29.26369 | 36994 ft | 475 kts | 109° |
| 2026-04-28 07:21 | 36.01102 | 29.34122 | 36996 ft | 475 kts | 109° |
| 2026-04-28 07:21 | 35.99045 | 29.41819 | 36997 ft | 475 kts | 109° |
| 2026-04-28 07:22 | 35.95923 | 29.53435 | 36996 ft | 475 kts | 109° |
| 2026-04-28 07:22 | 35.93839 | 29.61181 | 36997 ft | 475 kts | 109° |
| 2026-04-28 07:23 | 35.91754 | 29.68920 | 36994 ft | 475 kts | 109° |
| 2026-04-28 07:23 | 35.89680 | 29.76603 | 36996 ft | 475 kts | 109° |
| 2026-04-28 07:24 | 35.87590 | 29.84338 | 36997 ft | 475 kts | 109° |
| 2026-04-28 07:24 | 35.85497 | 29.92068 | 36996 ft | 475 kts | 109° |
| 2026-04-28 07:25 | 35.83391 | 29.99796 | 36999 ft | 475 kts | 110° |
| 2026-04-28 07:25 | 35.81360 | 30.07549 | 36994 ft | 476 kts | 108° |
| 2026-04-28 07:26 | 35.79449 | 30.15299 | 36993 ft | 476 kts | 108° |
| 2026-04-28 07:26 | 35.77533 | 30.23097 | 36995 ft | 476 kts | 108° |
| 2026-04-28 07:27 | 35.75571 | 30.30884 | 36990 ft | 476 kts | 108° |
| 2026-04-28 07:27 | 35.73578 | 30.38647 | 36993 ft | 476 kts | 109° |
| 2026-04-28 07:28 | 35.71597 | 30.46359 | 36993 ft | 476 kts | 108° |
| 2026-04-28 07:28 | 35.69613 | 30.54130 | 37000 ft | 476 kts | 108° |
| 2026-04-28 07:29 | 35.67622 | 30.61894 | 36995 ft | 476 kts | 109° |
| 2026-04-28 07:29 | 35.65626 | 30.69652 | 36993 ft | 476 kts | 109° |
| 2026-04-28 07:30 | 35.63622 | 30.77407 | 36990 ft | 476 kts | 109° |
| 2026-04-28 07:30 | 35.61629 | 30.85109 | 36992 ft | 476 kts | 109° |
| 2026-04-28 07:31 | 35.59661 | 30.92877 | 36993 ft | 476 kts | 108° |
| 2026-04-28 07:31 | 35.57724 | 31.00658 | 36992 ft | 476 kts | 108° |
| 2026-04-28 07:32 | 35.55769 | 31.08428 | 36991 ft | 476 kts | 108° |
| 2026-04-28 07:32 | 35.53809 | 31.16139 | 36991 ft | 476 kts | 108° |
| 2026-04-28 07:33 | 35.51836 | 31.23902 | 36995 ft | 476 kts | 108° |
| 2026-04-28 07:33 | 35.49871 | 31.31662 | 36995 ft | 476 kts | 108° |
| 2026-04-28 07:34 | 35.47897 | 31.39422 | 36995 ft | 476 kts | 108° |
| 2026-04-28 07:34 | 35.45923 | 31.47120 | 36996 ft | 476 kts | 109° |
| 2026-04-28 07:35 | 35.43929 | 31.54871 | 36995 ft | 476 kts | 109° |
| 2026-04-28 07:35 | 35.41932 | 31.62610 | 36996 ft | 476 kts | 109° |
| 2026-04-28 07:36 | 35.39933 | 31.70357 | 36997 ft | 476 kts | 109° |
| 2026-04-28 07:36 | 35.37943 | 31.78045 | 36996 ft | 476 kts | 109° |
| 2026-04-28 07:37 | 35.35937 | 31.85763 | 37020 ft | 474 kts | 109° |
| 2026-04-28 07:37 | 35.34930 | 31.89611 | 36586 ft | 476 kts | 109° |
| 2026-04-28 07:37 | 35.33906 | 31.93511 | 35566 ft | 484 kts | 109° |
| 2026-04-28 07:38 | 35.32874 | 31.97444 | 34504 ft | 485 kts | 108° |
| 2026-04-28 07:38 | 35.31846 | 32.01376 | 33452 ft | 484 kts | 108° |
| 2026-04-28 07:38 | 35.30821 | 32.05298 | 32200 ft | 483 kts | 108° |
| 2026-04-28 07:38 | 35.29798 | 32.09217 | 30770 ft | 484 kts | 108° |
| 2026-04-28 07:39 | 35.28768 | 32.13149 | 29159 ft | 487 kts | 108° |
| 2026-04-28 07:39 | 35.27750 | 32.17013 | 28090 ft | 478 kts | 108° |
| 2026-04-28 07:39 | 35.26751 | 32.20796 | 27541 ft | 457 kts | 107° |
| 2026-04-28 07:39 | 35.25790 | 32.24434 | 26849 ft | 442 kts | 107° |
| 2026-04-28 07:40 | 35.24859 | 32.27955 | 26206 ft | 429 kts | 107° |
| 2026-04-28 07:40 | 35.23937 | 32.31425 | 25570 ft | 430 kts | 107° |
| 2026-04-28 07:40 | 35.23012 | 32.34904 | 24917 ft | 430 kts | 107° |
| 2026-04-28 07:40 | 35.22090 | 32.38378 | 24268 ft | 429 kts | 107° |
| 2026-04-28 07:41 | 35.21167 | 32.41850 | 23636 ft | 429 kts | 107° |
| 2026-04-28 07:41 | 35.20244 | 32.45313 | 22929 ft | 428 kts | 107° |
| 2026-04-28 07:41 | 35.19340 | 32.48709 | 22309 ft | 424 kts | 108° |
| 2026-04-28 07:41 | 35.18430 | 32.52122 | 21684 ft | 421 kts | 108° |
| 2026-04-28 07:42 | 35.17527 | 32.55514 | 21080 ft | 418 kts | 108° |
| 2026-04-28 07:42 | 35.16629 | 32.58884 | 20495 ft | 416 kts | 108° |
| 2026-04-28 07:42 | 35.15731 | 32.62234 | 19921 ft | 414 kts | 108° |
| 2026-04-28 07:42 | 35.14838 | 32.65565 | 19364 ft | 412 kts | 108° |
| 2026-04-28 07:43 | 35.13947 | 32.68882 | 18809 ft | 410 kts | 108° |
| 2026-04-28 07:43 | 35.13056 | 32.72183 | 18270 ft | 408 kts | 108° |
| 2026-04-28 07:43 | 35.12169 | 32.75465 | 17678 ft | 405 kts | 108° |
| 2026-04-28 07:43 | 35.11306 | 32.78672 | 17138 ft | 401 kts | 108° |
| 2026-04-28 07:44 | 35.10439 | 32.81889 | 16587 ft | 397 kts | 108° |
| 2026-04-28 07:44 | 35.09575 | 32.85081 | 16019 ft | 395 kts | 108° |
| 2026-04-28 07:44 | 35.08714 | 32.88253 | 15435 ft | 392 kts | 108° |
| 2026-04-28 07:44 | 35.07861 | 32.91403 | 14870 ft | 390 kts | 108° |
| 2026-04-28 07:45 | 35.07011 | 32.94544 | 14273 ft | 388 kts | 109° |
| 2026-04-28 07:45 | 35.06144 | 32.97655 | 13672 ft | 386 kts | 109° |
| 2026-04-28 07:45 | 35.05262 | 33.00741 | 13035 ft | 384 kts | 109° |
| 2026-04-28 07:45 | 35.04376 | 33.03793 | 12438 ft | 380 kts | 110° |
| 2026-04-28 07:46 | 35.03492 | 33.06821 | 11843 ft | 378 kts | 109° |
| 2026-04-28 07:46 | 35.02627 | 33.09793 | 11240 ft | 375 kts | 109° |
| 2026-04-28 07:46 | 35.01761 | 33.12786 | 10733 ft | 371 kts | 109° |
| 2026-04-28 07:46 | 35.00921 | 33.15696 | 10609 ft | 356 kts | 109° |
| 2026-04-28 07:47 | 35.00118 | 33.18466 | 10473 ft | 334 kts | 109° |
| 2026-04-28 07:47 | 34.99370 | 33.21045 | 10348 ft | 312 kts | 109° |
| 2026-04-28 07:47 | 34.98661 | 33.23496 | 9951 ft | 304 kts | 109° |
| 2026-04-28 07:47 | 34.97965 | 33.25908 | 9761 ft | 299 kts | 109° |
| 2026-04-28 07:48 | 34.97276 | 33.28294 | 9631 ft | 298 kts | 109° |
| 2026-04-28 07:48 | 34.96590 | 33.30667 | 9497 ft | 297 kts | 109° |
| 2026-04-28 07:48 | 34.95904 | 33.33038 | 9275 ft | 297 kts | 109° |
| 2026-04-28 07:48 | 34.95224 | 33.35379 | 8930 ft | 297 kts | 109° |
| 2026-04-28 07:49 | 34.94533 | 33.37755 | 8530 ft | 298 kts | 109° |
| 2026-04-28 07:49 | 34.93842 | 33.40128 | 8255 ft | 296 kts | 109° |
| 2026-04-28 07:49 | 34.93153 | 33.42494 | 7855 ft | 294 kts | 109° |
| 2026-04-28 07:49 | 34.92472 | 33.44837 | 7430 ft | 293 kts | 109° |
| 2026-04-28 07:50 | 34.91793 | 33.47166 | 7029 ft | 291 kts | 109° |
| 2026-04-28 07:50 | 34.91116 | 33.49484 | 6637 ft | 289 kts | 109° |
| 2026-04-28 07:50 | 34.90444 | 33.51783 | 6255 ft | 287 kts | 109° |
| 2026-04-28 07:50 | 34.89789 | 33.54027 | 5879 ft | 283 kts | 109° |
| 2026-04-28 07:51 | 34.89129 | 33.56279 | 5510 ft | 281 kts | 109° |
| 2026-04-28 07:51 | 34.88472 | 33.58517 | 5155 ft | 282 kts | 109° |
| 2026-04-28 07:51 | 34.87810 | 33.60780 | 4785 ft | 285 kts | 109° |
| 2026-04-28 07:51 | 34.87144 | 33.63058 | 4404 ft | 287 kts | 110° |
| 2026-04-28 07:52 | 34.86476 | 33.65350 | 4026 ft | 288 kts | 110° |
| 2026-04-28 07:52 | 34.85808 | 33.67654 | 3655 ft | 289 kts | 110° |
| 2026-04-28 07:52 | 34.85142 | 33.69960 | 3282 ft | 289 kts | 109° |
| 2026-04-28 07:52 | 34.84478 | 33.72265 | 2907 ft | 289 kts | 109° |
| 2026-04-28 07:53 | 34.84061 | 33.74610 | 2539 ft | 288 kts | 90° |
| 2026-04-28 07:53 | 34.84498 | 33.76966 | 2169 ft | 288 kts | 63° |
| 2026-04-28 07:53 | 34.85748 | 33.78817 | 1965 ft | 279 kts | 39° |
| 2026-04-28 07:53 | 34.87222 | 33.80180 | 1976 ft | 254 kts | 36° |
| 2026-04-28 07:54 | 34.88586 | 33.81382 | 1984 ft | 232 kts | 36° |
| 2026-04-28 07:54 | 34.89875 | 33.82510 | 1987 ft | 227 kts | 36° |
| 2026-04-28 07:54 | 34.91201 | 33.83537 | 1988 ft | 226 kts | 19° |
| 2026-04-28 07:54 | 34.92732 | 33.83707 | 1988 ft | 223 kts | 345° |
| 2026-04-28 07:55 | 34.94094 | 33.82859 | 1989 ft | 221 kts | 320° |
| 2026-04-28 07:55 | 34.95248 | 33.81663 | 1987 ft | 220 kts | 316° |
| 2026-04-28 07:55 | 34.96354 | 33.80376 | 1987 ft | 219 kts | 308° |
| 2026-04-28 07:55 | 34.97118 | 33.78792 | 1985 ft | 217 kts | 288° |
| 2026-04-28 07:56 | 34.97404 | 33.77004 | 1987 ft | 211 kts | 269° |
| 2026-04-28 07:56 | 34.97210 | 33.75309 | 1989 ft | 193 kts | 251° |
| 2026-04-28 07:56 | 34.96644 | 33.73871 | 1989 ft | 186 kts | 235° |
| 2026-04-28 07:56 | 34.95798 | 33.72703 | 1872 ft | 182 kts | 224° |
| 2026-04-28 07:57 | 34.94922 | 33.71633 | 1694 ft | 180 kts | 224° |
| 2026-04-28 07:57 | 34.94038 | 33.70551 | 1485 ft | 180 kts | 224° |
| 2026-04-28 07:57 | 34.93162 | 33.69478 | 1268 ft | 176 kts | 223° |
| 2026-04-28 07:57 | 34.92319 | 33.68445 | 1058 ft | 167 kts | 224° |
| 2026-04-28 07:58 | 34.91540 | 33.67490 | 890 ft | 149 kts | 223° |
| 2026-04-28 07:58 | 34.90827 | 33.66617 | 711 ft | 142 kts | 223° |
| 2026-04-28 07:58 | 34.90141 | 33.65773 | 554 ft | 140 kts | 222° |
| 2026-04-28 07:58 | 34.89464 | 33.64937 | 381 ft | 139 kts | 223° |
| 2026-04-28 07:59 | 34.88785 | 33.64107 | 215 ft | 139 kts | 221° |
| 2026-04-28 07:59 | 34.88107 | 33.63285 | 39 ft | 139 kts | 221° |
| 2026-04-28 07:59 | 34.87461 | 33.62503 | 167 ft | 135 kts | 221° |
| 2026-04-28 07:59 | 34.86747 | 33.61626 | 710 ft | 154 kts | 222° |
| 2026-04-28 08:00 | 34.85976 | 33.60715 | 1609 ft | 156 kts | 222° |
| 2026-04-28 08:00 | 34.85145 | 33.59774 | 2188 ft | 173 kts | 222° |
| 2026-04-28 08:00 | 34.84197 | 33.58730 | 2561 ft | 195 kts | 222° |
| 2026-04-28 08:00 | 34.83126 | 33.57577 | 2918 ft | 214 kts | 222° |
| 2026-04-28 08:01 | 34.81962 | 33.56402 | 2984 ft | 218 kts | 212° |
| 2026-04-28 08:01 | 34.80545 | 33.55806 | 2984 ft | 218 kts | 184° |
| 2026-04-28 08:01 | 34.79081 | 33.56113 | 2981 ft | 219 kts | 154° |
| 2026-04-28 08:01 | 34.77859 | 33.57215 | 2982 ft | 221 kts | 139° |
| 2026-04-28 08:02 | 34.76713 | 33.58461 | 2982 ft | 221 kts | 139° |
| 2026-04-28 08:02 | 34.75567 | 33.59705 | 2980 ft | 220 kts | 139° |
| 2026-04-28 08:02 | 34.74424 | 33.60943 | 2983 ft | 220 kts | 139° |
| 2026-04-28 08:02 | 34.73312 | 33.62220 | 2981 ft | 221 kts | 128° |
| 2026-04-28 08:03 | 34.72750 | 33.63935 | 2982 ft | 224 kts | 93° |
| 2026-04-28 08:03 | 34.73080 | 33.65821 | 2983 ft | 235 kts | 60° |
| 2026-04-28 08:03 | 34.74167 | 33.67297 | 2975 ft | 237 kts | 39° |
| 2026-04-28 08:03 | 34.75451 | 33.68513 | 2984 ft | 238 kts | 36° |
| 2026-04-28 08:04 | 34.76773 | 33.69715 | 2981 ft | 237 kts | 36° |
| 2026-04-28 08:04 | 34.78086 | 33.70928 | 2983 ft | 237 kts | 38° |
| 2026-04-28 08:04 | 34.79336 | 33.72234 | 2986 ft | 237 kts | 40° |
| 2026-04-28 08:04 | 34.80574 | 33.73565 | 2980 ft | 238 kts | 40° |
| 2026-04-28 08:05 | 34.81810 | 33.74903 | 2984 ft | 238 kts | 40° |
| 2026-04-28 08:05 | 34.83040 | 33.76243 | 2978 ft | 237 kts | 40° |
| 2026-04-28 08:05 | 34.84273 | 33.77589 | 2798 ft | 238 kts | 40° |
| 2026-04-28 08:05 | 34.85487 | 33.78908 | 2546 ft | 236 kts | 41° |
| 2026-04-28 08:06 | 34.86715 | 33.80226 | 2306 ft | 235 kts | 40° |
| 2026-04-28 08:06 | 34.87948 | 33.81534 | 2072 ft | 234 kts | 40° |
| 2026-04-28 08:06 | 34.89189 | 33.82831 | 1975 ft | 235 kts | 39° |
| 2026-04-28 08:06 | 34.90645 | 33.83689 | 1988 ft | 235 kts | 8° |
| 2026-04-28 08:07 | 34.92240 | 33.83481 | 1989 ft | 232 kts | 335° |
| 2026-04-28 08:07 | 34.93556 | 33.82375 | 1989 ft | 230 kts | 317° |
| 2026-04-28 08:07 | 34.94732 | 33.81051 | 1989 ft | 230 kts | 315° |
| 2026-04-28 08:07 | 34.95845 | 33.79665 | 1983 ft | 226 kts | 305° |
| 2026-04-28 08:08 | 34.96552 | 33.78042 | 1976 ft | 209 kts | 286° |
| 2026-04-28 08:08 | 34.96790 | 33.76394 | 1983 ft | 193 kts | 269° |
| 2026-04-28 08:08 | 34.96638 | 33.74813 | 1998 ft | 185 kts | 254° |
| 2026-04-28 08:08 | 34.96148 | 33.73378 | 1950 ft | 183 kts | 238° |
| 2026-04-28 08:09 | 34.95366 | 33.72177 | 1791 ft | 180 kts | 224° |
| 2026-04-28 08:09 | 34.94483 | 33.71098 | 1597 ft | 180 kts | 224° |
| 2026-04-28 08:09 | 34.93605 | 33.70020 | 1381 ft | 178 kts | 223° |
| 2026-04-28 08:09 | 34.92740 | 33.68961 | 1156 ft | 173 kts | 224° |
| 2026-04-28 08:10 | 34.91937 | 33.67977 | 990 ft | 155 kts | 223° |
| 2026-04-28 08:10 | 34.91213 | 33.67090 | 803 ft | 144 kts | 223° |
| 2026-04-28 08:10 | 34.90519 | 33.66239 | 633 ft | 140 kts | 223° |
| 2026-04-28 08:10 | 34.89834 | 33.65399 | 469 ft | 138 kts | 222° |
| 2026-04-28 08:11 | 34.89158 | 33.64565 | 309 ft | 139 kts | 222° |
| 2026-04-28 08:11 | 34.88478 | 33.63737 | 136 ft | 138 kts | 221° |
| 2026-04-28 08:11 | 34.87813 | 33.62931 | 22 ft | 121 kts | 225° |
| 2026-04-28 08:11 | 34.87339 | 33.62351 | 21 ft | 72 kts | 225° |